Mariner Of The Seas — C6FV9 — position and weather

sailwx.info

Track history (hours):
 
Tides and Currents Weather Stations Pressure Air Temp Water Temp Dewpoint Dewpoint Depression Visibility Wind Speed Wind Dir Waves Ship Positions

Mariner Of The Seas

Operator: Royal Caribbean Cruises Ltd

Last reported at 2015-Apr-16 22:11 UTC. Time now 2015-Apr-18 04:58 UTC.
Position N 32°45' E 125°01'.

Type: Passenger vessel. MMSI: 311493000.

Date/timePositionNaut miles runAvg speedWind from/ knotsBaromVisibWave heightAir tempDewpointWater temp
2015-Apr-16 22:11N 32°45' E 125°01'1218.7
2015-Apr-16 21:33N 32°37' E 124°51'1818.0
2015-Apr-16 20:33N 32°25' E 124°35'1817.6
2015-Apr-16 19:33N 32°14' E 124°19'1818.0
2015-Apr-16 18:33N 32°02' E 124°03'1918.9
2015-Apr-16 17:33N 31°50' E 123°45'1919.0
2015-Apr-16 16:33N 31°38' E 123°28'1919.0
2015-Apr-16 15:32N 31°25' E 123°12'1818.1
2015-Apr-16 14:33N 31°13' E 122°56'1817.6
2015-Apr-16 13:33N 31°06' E 122°38'1616.2
2015-Apr-16 12:33N 31°06' E 122°19'1414.5
2015-Apr-16 11:33N 31°14' E 122°05'1313.3
2015-Apr-16 10:34N 31°17' E 121°49'8 7.8
2015-Apr-16 09:34N 31°20' E 121°41'1010.1
2015-Apr-16 08:33N 31°25' E 121°30'0 0.2
2015-Apr-16 07:33N 31°25' E 121°30'0 0.0
2015-Apr-16 06:32N 31°25' E 121°30'0 0.0
2015-Apr-16 05:32N 31°25' E 121°30'0 0.0
2015-Apr-16 04:32N 31°25' E 121°30'0 0.0
2015-Apr-16 03:26N 31°25' E 121°30'0 0.0
2015-Apr-16 02:32N 31°25' E 121°30'0 0.0
2015-Apr-16 01:32N 31°25' E 121°30'0 0.0
2015-Apr-16 00:26N 31°25' E 121°30'0 0.0
2015-Apr-15 23:32N 31°25' E 121°30'0 0.1
2015-Apr-15 22:33N 31°25' E 121°30'5 5.1
2015-Apr-15 21:33N 31°23' E 121°36'1010.0
2015-Apr-15 20:33N 31°18' E 121°46'1110.7
2015-Apr-15 19:33N 31°15' E 121°58'1111.0
2015-Apr-15 18:33N 31°11' E 122°10'1212.2
2015-Apr-15 17:33N 31°06' E 122°23'10 9.8
2015-Apr-15 16:34N 31°13' E 122°31'1311.1
2015-Apr-15 15:21N 31°22' E 122°43'39012.7
2015-Apr-14 08:33N 35°05' E 129°06'1 0.1
2015-Apr-13 22:31N 35°05' E 129°05'90 8.6
2015-Apr-13 12:04N 33°54' E 130°11'5 9.3
2015-Apr-13 11:33N 33°49' E 130°14'10 9.8
2015-Apr-13 10:31N 33°40' E 130°17'6 6.6
2015-Apr-13 09:33N 33°37' E 130°24'0 0.0
2015-Apr-13 08:33N 33°37' E 130°24'0 0.0
2015-Apr-13 07:28N 33°37' E 130°24'0 0.0
2015-Apr-13 06:24N 33°37' E 130°24'0 0.0
2015-Apr-13 05:33N 33°37' E 130°24'0 0.0
2015-Apr-13 04:33N 33°37' E 130°24'0 0.0
2015-Apr-13 03:33N 33°37' E 130°24'0 0.0
2015-Apr-13 02:33N 33°37' E 130°24'0 0.0
2015-Apr-13 01:33N 33°37' E 130°24'0 0.0
2015-Apr-13 00:33N 33°37' E 130°24'1 1.3
2015-Apr-12 23:33N 33°37' E 130°23'1212.4
2015-Apr-12 22:34N 33°44' E 130°11'36412.0
2015-Apr-11 16:17N 31°41' E 123°23'1317.8
2015-Apr-11 15:32N 31°35' E 123°09'1717.6
2015-Apr-11 14:33N 31°27' E 122°52'1817.7
2015-Apr-11 13:33N 31°15' E 122°36'1414.5
2015-Apr-11 12:33N 31°06' E 122°23'1312.8
2015-Apr-11 11:34N 31°12' E 122°09'1211.6
2015-Apr-11 10:34N 31°15' E 121°56'1211.8
2015-Apr-11 09:33N 31°19' E 121°43'1211.9
2015-Apr-11 08:33N 31°25' E 121°31'1 0.8
2015-Apr-11 07:32N 31°25' E 121°30'0 0.0
2015-Apr-11 06:32N 31°25' E 121°30'0 0.0
2015-Apr-11 05:32N 31°25' E 121°30'0 0.0
2015-Apr-11 04:32N 31°25' E 121°30'0 0.0
2015-Apr-11 03:29N 31°25' E 121°30'0 0.0
2015-Apr-11 02:32N 31°25' E 121°30'0 0.0
2015-Apr-11 01:32N 31°25' E 121°30'0 0.0
2015-Apr-11 00:32N 31°25' E 121°30'0 0.0
2015-Apr-10 23:32N 31°25' E 121°30'0 0.0
2015-Apr-10 22:29N 31°25' E 121°30'0 0.0
2015-Apr-10 21:32N 31°25' E 121°30'0 0.0
2015-Apr-10 20:29N 31°25' E 121°30'0 0.0
2015-Apr-10 19:32N 31°25' E 121°30'2 2.0
2015-Apr-10 18:33N 31°24' E 121°32'9 9.1
2015-Apr-10 17:33N 31°20' E 121°42'1110.7
2015-Apr-10 16:33N 31°16' E 121°53'1211.6
2015-Apr-10 15:33N 31°13' E 122°07'1212.1
2015-Apr-10 14:33N 31°06' E 122°18'41714.4
2015-Apr-09 09:33N 35°05' E 129°06'1 0.5
2015-Apr-09 07:11N 35°05' E 129°05'0 0.0
2015-Apr-09 06:23N 35°05' E 129°05'0 0.0
2015-Apr-09 05:29N 35°05' E 129°05'0 0.0
2015-Apr-09 04:29N 35°05' E 129°05'0 0.0
2015-Apr-09 03:14N 35°05' E 129°05'0 0.0
2015-Apr-09 02:32N 35°05' E 129°05'0 0.0
2015-Apr-09 01:23N 35°05' E 129°05'0 0.0
2015-Apr-09 00:23N 35°05' E 129°05'0 0.1
2015-Apr-08 23:33N 35°05' E 129°05'40011.8
2015-Apr-07 13:33N 31°14' E 122°35'1312.8
2015-Apr-07 12:33N 31°06' E 122°23'1212.2
2015-Apr-07 11:33N 31°11' E 122°10'1413.8
2015-Apr-07 10:33N 31°16' E 121°55'1313.3
2015-Apr-07 09:33N 31°20' E 121°41'1010.2
2015-Apr-07 08:33N 31°25' E 121°30'0 0.0
2015-Apr-07 07:28N 31°25' E 121°30'0 0.0
2015-Apr-07 06:31N 31°25' E 121°30'0 0.0
2015-Apr-07 05:22N 31°25' E 121°30'0 0.0
2015-Apr-07 04:31N 31°25' E 121°30'0 0.0
2015-Apr-07 03:32N 31°25' E 121°30'0 0.0
2015-Apr-07 02:32N 31°25' E 121°30'0 0.0
2015-Apr-07 01:29N 31°25' E 121°30'0 0.0
2015-Apr-07 00:29N 31°25' E 121°30'0 0.0
2015-Apr-06 23:32N 31°25' E 121°30'0 0.0
2015-Apr-06 22:29N 31°25' E 121°30'  
Track history (hours):
 
Tides and Currents Weather Stations Pressure Air Temp Water Temp Dewpoint Dewpoint Depression Visibility Wind Speed Wind Dir Waves Ship Positions

Mariner Of The Seas

Operator: Royal Caribbean Cruises Ltd

Last reported at 2015-Apr-16 22:11 UTC. Time now 2015-Apr-18 04:58 UTC.
Position N 32°45' E 125°01'.

Type: Passenger vessel. MMSI: 311493000.

Date/timePositionNaut miles runAvg speedWind from/ knotsBaromVisibWave heightAir tempDewpointWater temp
2015-Apr-16 22:11N 32°45' E 125°01'1218.7
2015-Apr-16 21:33N 32°37' E 124°51'1818.0
2015-Apr-16 20:33N 32°25' E 124°35'1817.6
2015-Apr-16 19:33N 32°14' E 124°19'1818.0
2015-Apr-16 18:33N 32°02' E 124°03'1918.9
2015-Apr-16 17:33N 31°50' E 123°45'1919.0
2015-Apr-16 16:33N 31°38' E 123°28'1919.0
2015-Apr-16 15:32N 31°25' E 123°12'1818.1
2015-Apr-16 14:33N 31°13' E 122°56'1817.6
2015-Apr-16 13:33N 31°06' E 122°38'1616.2
2015-Apr-16 12:33N 31°06' E 122°19'1414.5
2015-Apr-16 11:33N 31°14' E 122°05'1313.3
2015-Apr-16 10:34N 31°17' E 121°49'8 7.8
2015-Apr-16 09:34N 31°20' E 121°41'1010.1
2015-Apr-16 08:33N 31°25' E 121°30'0 0.2
2015-Apr-16 07:33N 31°25' E 121°30'0 0.0
2015-Apr-16 06:32N 31°25' E 121°30'0 0.0
2015-Apr-16 05:32N 31°25' E 121°30'0 0.0
2015-Apr-16 04:32N 31°25' E 121°30'0 0.0
2015-Apr-16 03:26N 31°25' E 121°30'0 0.0
2015-Apr-16 02:32N 31°25' E 121°30'0 0.0
2015-Apr-16 01:32N 31°25' E 121°30'0 0.0
2015-Apr-16 00:26N 31°25' E 121°30'0 0.0
2015-Apr-15 23:32N 31°25' E 121°30'0 0.1
2015-Apr-15 22:33N 31°25' E 121°30'5 5.1
2015-Apr-15 21:33N 31°23' E 121°36'1010.0
2015-Apr-15 20:33N 31°18' E 121°46'1110.7
2015-Apr-15 19:33N 31°15' E 121°58'1111.0
2015-Apr-15 18:33N 31°11' E 122°10'1212.2
2015-Apr-15 17:33N 31°06' E 122°23'10 9.8
2015-Apr-15 16:34N 31°13' E 122°31'1311.1
2015-Apr-15 15:21N 31°22' E 122°43'39012.7
2015-Apr-14 08:33N 35°05' E 129°06'1 0.1
2015-Apr-13 22:31N 35°05' E 129°05'90 8.6
2015-Apr-13 12:04N 33°54' E 130°11'5 9.3
2015-Apr-13 11:33N 33°49' E 130°14'10 9.8
2015-Apr-13 10:31N 33°40' E 130°17'6 6.6
2015-Apr-13 09:33N 33°37' E 130°24'0 0.0
2015-Apr-13 08:33N 33°37' E 130°24'0 0.0
2015-Apr-13 07:28N 33°37' E 130°24'0 0.0
2015-Apr-13 06:24N 33°37' E 130°24'0 0.0
2015-Apr-13 05:33N 33°37' E 130°24'0 0.0
2015-Apr-13 04:33N 33°37' E 130°24'0 0.0
2015-Apr-13 03:33N 33°37' E 130°24'0 0.0
2015-Apr-13 02:33N 33°37' E 130°24'0 0.0
2015-Apr-13 01:33N 33°37' E 130°24'0 0.0
2015-Apr-13 00:33N 33°37' E 130°24'1 1.3
2015-Apr-12 23:33N 33°37' E 130°23'1212.4
2015-Apr-12 22:34N 33°44' E 130°11'36412.0
2015-Apr-11 16:17N 31°41' E 123°23'1317.8
2015-Apr-11 15:32N 31°35' E 123°09'1717.6
2015-Apr-11 14:33N 31°27' E 122°52'1817.7
2015-Apr-11 13:33N 31°15' E 122°36'1414.5
2015-Apr-11 12:33N 31°06' E 122°23'1312.8
2015-Apr-11 11:34N 31°12' E 122°09'1211.6
2015-Apr-11 10:34N 31°15' E 121°56'1211.8
2015-Apr-11 09:33N 31°19' E 121°43'1211.9
2015-Apr-11 08:33N 31°25' E 121°31'1 0.8
2015-Apr-11 07:32N 31°25' E 121°30'0 0.0
2015-Apr-11 06:32N 31°25' E 121°30'0 0.0
2015-Apr-11 05:32N 31°25' E 121°30'0 0.0
2015-Apr-11 04:32N 31°25' E 121°30'0 0.0
2015-Apr-11 03:29N 31°25' E 121°30'0 0.0
2015-Apr-11 02:32N 31°25' E 121°30'0 0.0
2015-Apr-11 01:32N 31°25' E 121°30'0 0.0
2015-Apr-11 00:32N 31°25' E 121°30'0 0.0
2015-Apr-10 23:32N 31°25' E 121°30'0 0.0
2015-Apr-10 22:29N 31°25' E 121°30'0 0.0
2015-Apr-10 21:32N 31°25' E 121°30'0 0.0
2015-Apr-10 20:29N 31°25' E 121°30'0 0.0
2015-Apr-10 19:32N 31°25' E 121°30'2 2.0
2015-Apr-10 18:33N 31°24' E 121°32'9 9.1
2015-Apr-10 17:33N 31°20' E 121°42'1110.7
2015-Apr-10 16:33N 31°16' E 121°53'1211.6
2015-Apr-10 15:33N 31°13' E 122°07'1212.1
2015-Apr-10 14:33N 31°06' E 122°18'41714.4
2015-Apr-09 09:33N 35°05' E 129°06'1 0.5
2015-Apr-09 07:11N 35°05' E 129°05'0 0.0
2015-Apr-09 06:23N 35°05' E 129°05'0 0.0
2015-Apr-09 05:29N 35°05' E 129°05'0 0.0
2015-Apr-09 04:29N 35°05' E 129°05'0 0.0
2015-Apr-09 03:14N 35°05' E 129°05'0 0.0
2015-Apr-09 02:32N 35°05' E 129°05'0 0.0
2015-Apr-09 01:23N 35°05' E 129°05'0 0.0
2015-Apr-09 00:23N 35°05' E 129°05'0 0.1
2015-Apr-08 23:33N 35°05' E 129°05'40011.8
2015-Apr-07 13:33N 31°14' E 122°35'1312.8
2015-Apr-07 12:33N 31°06' E 122°23'1212.2
2015-Apr-07 11:33N 31°11' E 122°10'1413.8
2015-Apr-07 10:33N 31°16' E 121°55'1313.3
2015-Apr-07 09:33N 31°20' E 121°41'1010.2
2015-Apr-07 08:33N 31°25' E 121°30'0 0.0
2015-Apr-07 07:28N 31°25' E 121°30'0 0.0
2015-Apr-07 06:31N 31°25' E 121°30'0 0.0
2015-Apr-07 05:22N 31°25' E 121°30'0 0.0
2015-Apr-07 04:31N 31°25' E 121°30'0 0.0
2015-Apr-07 03:32N 31°25' E 121°30'0 0.0
2015-Apr-07 02:32N 31°25' E 121°30'0 0.0
2015-Apr-07 01:29N 31°25' E 121°30'0 0.0
2015-Apr-07 00:29N 31°25' E 121°30'0 0.0
2015-Apr-06 23:32N 31°25' E 121°30'0 0.0
2015-Apr-06 22:29N 31°25' E 121°30'  

Dump ship's entire track history